createdAt,value
2019-04-22T00:04:55.096Z,36.04
2019-04-22T00:10:21.115Z,36.96
2019-04-22T00:15:20.100Z,37.64
2019-04-22T00:20:35.257Z,37.96
2019-04-22T00:25:42.154Z,37.53
2019-04-22T00:30:47.158Z,37.75
2019-04-22T00:35:54.497Z,38.04
2019-04-22T00:41:01.104Z,38.00
2019-04-22T00:46:15.562Z,38.73
2019-04-22T00:51:39.427Z,38.29
2019-04-22T00:56:22.095Z,38.27
2019-04-22T01:01:32.093Z,38.55
2019-04-22T01:06:51.534Z,39.08
2019-04-22T01:11:45.070Z,39.18
2019-04-22T01:16:57.846Z,40.15
2019-04-22T01:21:58.294Z,39.98
2019-04-22T01:26:58.810Z,40.08
2019-04-22T01:31:51.376Z,40.48
2019-04-22T01:37:20.322Z,40.81
2019-04-22T01:42:35.842Z,41.26
2019-04-22T01:47:37.851Z,41.58
2019-04-22T01:52:46.763Z,41.07
2019-04-22T01:57:49.002Z,41.06
2019-04-22T02:03:08.669Z,41.47
2019-04-22T02:08:15.137Z,42.20
2019-04-22T02:13:15.290Z,41.97
2019-04-22T02:18:23.117Z,42.05
2019-04-22T02:28:47.687Z,42.64
2019-04-22T02:34:09.583Z,43.08
2019-04-22T02:49:18.865Z,43.06
2019-04-22T02:54:44.667Z,43.07
2019-04-22T02:59:25.931Z,43.45
2019-04-22T03:04:24.569Z,43.25
2019-04-22T03:14:48.555Z,43.73
2019-04-22T03:45:28.180Z,45.23
2019-04-22T03:55:49.331Z,44.98
2019-04-22T04:00:55.460Z,44.85
2019-04-22T04:05:59.596Z,45.59
2019-04-22T04:11:06.966Z,46.04
2019-04-22T04:16:19.498Z,45.96
2019-04-22T04:31:40.980Z,47.15
2019-04-22T04:36:54.865Z,48.27
2019-04-22T04:52:16.987Z,48.74
2019-04-22T04:57:16.551Z,48.73
2019-04-22T05:07:38.307Z,48.48
2019-04-22T05:17:45.505Z,48.94
2019-04-22T05:23:01.043Z,48.65
2019-04-22T05:27:52.137Z,49.06
2019-04-22T05:33:16.767Z,49.50
2019-04-22T05:38:09.667Z,49.65
2019-04-22T05:43:16.343Z,50.00
2019-04-22T05:48:18.829Z,50.13
2019-04-22T05:53:27.291Z,50.41
2019-04-22T05:58:38.439Z,50.14
2019-04-22T06:03:46.134Z,50.02
2019-04-22T06:08:52.419Z,49.68
2019-04-22T06:13:56.012Z,50.26
2019-04-22T06:19:07.443Z,49.54
2019-04-22T06:24:16.663Z,50.03
2019-04-22T06:29:20.925Z,49.86
2019-04-22T06:34:30.574Z,50.61
2019-04-22T06:44:43.032Z,49.75
2019-04-22T06:49:52.641Z,48.79
2019-04-22T06:55:03.302Z,47.00
2019-04-22T07:00:07.119Z,46.18
2019-04-22T07:05:28.086Z,45.37
2019-04-22T07:10:30.494Z,45.36
2019-04-22T07:15:42.162Z,44.49
2019-04-22T07:20:41.021Z,43.61
2019-04-22T07:25:41.333Z,43.20
2019-04-22T07:30:50.729Z,41.81
2019-04-22T07:36:16.899Z,41.55
2019-04-22T07:41:03.182Z,41.32
2019-04-22T07:46:28.714Z,40.48
2019-04-22T07:51:23.582Z,39.85
2019-04-22T07:56:27.633Z,40.24
2019-04-22T08:01:30.525Z,40.08
2019-04-22T08:06:48.667Z,37.75
2019-04-22T08:11:51.303Z,37.47
2019-04-22T08:17:01.016Z,36.99
2019-04-22T08:27:11.282Z,36.46
2019-04-22T08:32:17.534Z,36.76
2019-04-22T08:42:49.955Z,36.55
2019-04-22T08:47:36.137Z,35.88
2019-04-22T08:52:42.215Z,34.93
2019-04-22T08:58:13.368Z,35.56
2019-04-22T09:03:02.600Z,34.01
2019-04-22T09:08:09.401Z,33.82
2019-04-22T09:13:09.865Z,32.85
2019-04-22T09:18:24.637Z,32.92
2019-04-22T09:23:33.095Z,32.70
2019-04-22T09:28:42.390Z,31.74
2019-04-22T09:33:36.851Z,31.33
2019-04-22T09:38:49.145Z,30.43
2019-04-22T09:43:56.607Z,31.34
2019-04-22T09:49:09.694Z,31.29
2019-04-22T09:54:19.752Z,30.50
2019-04-22T09:59:20.474Z,30.74
2019-04-22T10:04:25.376Z,30.04
2019-04-22T10:09:53.139Z,30.19
2019-04-22T10:14:45.641Z,31.01
2019-04-22T10:19:49.454Z,30.25
2019-04-22T10:25:01.932Z,28.95
2019-04-22T10:30:04.326Z,29.95
2019-04-22T10:35:15.416Z,29.80
2019-04-22T10:40:29.580Z,29.33
2019-04-22T10:45:36.225Z,28.90
2019-04-22T10:50:46.872Z,29.39
2019-04-22T10:55:54.239Z,29.05
2019-04-22T11:01:01.135Z,29.59
2019-04-22T11:06:07.630Z,29.57
2019-04-22T11:11:29.012Z,29.27
2019-04-22T11:16:21.499Z,29.12
2019-04-22T11:21:27.456Z,28.15
2019-04-22T11:26:34.657Z,29.50
2019-04-22T11:31:42.108Z,29.46
2019-04-22T11:36:47.615Z,29.80
2019-04-22T11:41:53.950Z,28.59
2019-04-22T11:47:01.554Z,28.45
2019-04-22T11:52:09.286Z,27.61
2019-04-22T11:57:15.186Z,27.63
2019-04-22T12:02:23.458Z,27.25
2019-04-22T12:07:34.466Z,28.06
2019-04-22T12:12:37.537Z,28.86
2019-04-22T12:17:44.469Z,28.32
2019-04-22T12:22:51.350Z,27.33
2019-04-22T12:27:57.061Z,27.62
2019-04-22T12:33:04.654Z,27.62
2019-04-22T12:38:13.163Z,25.87
2019-04-22T12:43:22.167Z,25.81
2019-04-22T12:48:27.329Z,25.70
2019-04-22T12:53:34.028Z,25.97
2019-04-22T12:58:39.305Z,26.54
2019-04-22T13:03:44.766Z,26.40
2019-04-22T13:08:50.139Z,26.87
2019-04-22T13:13:56.772Z,27.17
2019-04-22T13:19:07.709Z,26.69
2019-04-22T13:24:09.180Z,27.32
2019-04-22T13:29:15.031Z,26.27
2019-04-22T13:34:29.511Z,25.98
2019-04-22T13:39:29.199Z,26.00
2019-04-22T13:44:35.562Z,25.14
2019-04-22T13:50:17.818Z,24.61
2019-04-22T13:55:19.493Z,24.30
2019-04-22T13:59:59.777Z,24.41
2019-04-22T14:05:04.326Z,24.22
2019-04-22T14:10:12.228Z,23.48
2019-04-22T14:15:18.152Z,24.23
2019-04-22T14:20:27.750Z,23.56
2019-04-22T14:25:32.641Z,24.06
2019-04-22T14:30:38.810Z,23.96
2019-04-22T14:35:44.115Z,23.90
2019-04-22T14:40:49.894Z,23.27
2019-04-22T14:46:23.383Z,23.44
2019-04-22T14:51:22.253Z,23.49
2019-04-22T14:56:10.655Z,24.53
2019-04-22T15:01:17.073Z,25.04
2019-04-22T15:06:24.224Z,26.29
2019-04-22T15:11:42.794Z,25.93
2019-04-22T15:16:46.739Z,25.51
2019-04-22T15:21:52.673Z,25.47
2019-04-22T15:26:58.930Z,25.19
2019-04-22T15:32:07.424Z,25.71
2019-04-22T15:37:13.947Z,26.46
2019-04-22T15:42:27.758Z,26.21
2019-04-22T15:47:29.071Z,25.93
2019-04-22T15:52:40.696Z,27.47
2019-04-22T15:57:42.055Z,27.20
2019-04-22T16:02:47.870Z,27.20
2019-04-22T16:07:54.903Z,27.35
2019-04-22T16:13:10.612Z,27.79
2019-04-22T16:18:12.922Z,26.89
2019-04-22T16:23:38.134Z,26.54
2019-04-22T16:28:44.804Z,27.85
2019-04-22T16:33:50.440Z,27.72
2019-04-22T16:38:57.092Z,27.87
2019-04-22T16:44:02.751Z,28.66
2019-04-22T16:49:09.789Z,28.77
2019-04-22T16:54:16.002Z,28.48
2019-04-22T16:59:22.570Z,28.60
2019-04-22T17:04:51.639Z,29.89
2019-04-22T17:09:57.627Z,30.46
2019-04-22T17:15:08.081Z,30.49
2019-04-22T17:20:11.321Z,30.61
2019-04-22T17:25:20.554Z,31.26
2019-04-22T17:30:29.173Z,31.74
2019-04-22T17:35:36.036Z,31.66
2019-04-22T17:40:58.225Z,31.69
2019-04-22T17:46:23.390Z,32.09
2019-04-22T17:51:55.127Z,32.27
2019-04-22T17:56:43.638Z,32.79
2019-04-22T18:01:44.030Z,33.18
2019-04-22T18:07:03.862Z,33.63
2019-04-22T18:12:05.703Z,34.36
2019-04-22T18:17:14.086Z,34.78
2019-04-22T18:22:07.595Z,34.83
2019-04-22T18:27:34.710Z,35.10
2019-04-22T18:32:20.292Z,35.46
2019-04-22T18:37:40.247Z,35.54
2019-04-22T18:42:42.021Z,35.54
2019-04-22T18:47:46.576Z,35.42
2019-04-22T18:53:11.019Z,35.70
2019-04-22T18:58:10.197Z,35.95
2019-04-22T19:03:09.261Z,35.86
2019-04-22T19:08:28.801Z,35.95
2019-04-22T19:13:59.187Z,36.11
2019-04-22T19:18:45.970Z,36.39
2019-04-22T19:23:53.981Z,36.52
2019-04-22T19:29:03.343Z,36.52
2019-04-22T19:34:06.273Z,36.77
2019-04-22T19:39:10.496Z,37.20
2019-04-22T19:44:19.460Z,37.35
2019-04-22T19:49:39.513Z,37.50
2019-04-22T19:54:40.591Z,37.87
2019-04-22T19:59:45.316Z,38.15
2019-04-22T20:05:06.514Z,38.33
2019-04-22T20:10:10.483Z,38.51
2019-04-22T20:15:13.858Z,38.80
2019-04-22T20:20:34.368Z,38.57
2019-04-22T20:25:28.393Z,38.36
2019-04-22T20:30:39.679Z,38.75
2019-04-22T20:35:51.963Z,38.45
2019-04-22T20:40:55.045Z,38.30
2019-04-22T20:46:05.256Z,38.46
2019-04-22T20:51:13.934Z,38.74
2019-04-22T20:56:18.659Z,38.43
2019-04-22T21:01:28.560Z,38.52
2019-04-22T21:06:36.951Z,38.58
2019-04-22T21:11:45.455Z,38.81
2019-04-22T21:16:59.164Z,38.60
2019-04-22T21:22:03.195Z,38.68
2019-04-22T21:27:16.789Z,38.33
2019-04-22T21:32:17.521Z,38.13
2019-04-22T21:37:26.721Z,38.40
2019-04-22T21:42:34.903Z,38.32
2019-04-22T21:47:48.806Z,38.39
2019-04-22T21:52:51.043Z,38.47
2019-04-22T21:58:09.435Z,38.57
2019-04-22T22:03:19.167Z,38.61
2019-04-22T22:08:30.107Z,38.81
2019-04-22T22:13:31.869Z,38.90
2019-04-22T22:18:29.025Z,39.31
2019-04-22T22:23:42.392Z,39.48
2019-04-22T22:34:04.095Z,39.91
2019-04-22T22:39:03.951Z,40.00
2019-04-22T22:44:03.348Z,40.41
2019-04-22T22:49:23.645Z,40.54
2019-04-22T22:54:33.089Z,40.78
2019-04-22T22:59:38.597Z,41.25
2019-04-22T23:04:45.914Z,41.42
2019-04-22T23:09:51.074Z,41.62
2019-04-22T23:14:53.866Z,41.63
2019-04-22T23:19:51.656Z,41.99
2019-04-22T23:25:17.346Z,41.78
2019-04-22T23:30:40.981Z,42.17
2019-04-22T23:36:03.724Z,42.24
2019-04-22T23:46:41.441Z,42.50
2019-04-22T23:52:02.683Z,42.78
2019-04-22T23:56:56.468Z,43.01
